createdAt,value
2022-10-16T00:01:23.937Z,100.00
2022-10-16T00:03:51.737Z,100.00
2022-10-16T00:06:21.609Z,100.00
2022-10-16T00:08:50.055Z,100.00
2022-10-16T00:11:23.776Z,100.00
2022-10-16T00:13:52.994Z,100.00
2022-10-16T00:16:20.431Z,100.00
2022-10-16T00:18:47.707Z,100.00
2022-10-16T00:21:18.883Z,100.00
2022-10-16T00:23:46.180Z,100.00
2022-10-16T00:26:16.167Z,100.00
2022-10-16T00:28:43.703Z,100.00
2022-10-16T00:31:12.310Z,100.00
2022-10-16T00:33:40.817Z,100.00
2022-10-16T00:36:10.621Z,100.00
2022-10-16T00:38:38.788Z,100.00
2022-10-16T00:41:08.515Z,100.00
2022-10-16T00:43:45.254Z,100.00
2022-10-16T00:46:36.164Z,100.00
2022-10-16T00:49:21.790Z,100.00
2022-10-16T00:51:52.114Z,100.00
2022-10-16T00:54:24.059Z,100.00
2022-10-16T00:56:51.561Z,100.00
2022-10-16T00:59:23.706Z,100.00
2022-10-16T01:01:50.705Z,100.00
2022-10-16T01:04:18.545Z,100.00
2022-10-16T01:07:04.286Z,100.00
2022-10-16T01:09:38.791Z,100.00
2022-10-16T01:12:38.692Z,100.00
2022-10-16T01:15:30.443Z,100.00
2022-10-16T01:18:08.775Z,100.00
2022-10-16T01:20:44.086Z,100.00
2022-10-16T01:23:26.657Z,100.00
2022-10-16T01:26:16.478Z,100.00
2022-10-16T01:28:55.540Z,100.00
2022-10-16T01:31:26.860Z,100.00
2022-10-16T01:34:23.312Z,100.00
2022-10-16T01:36:56.656Z,100.00
2022-10-16T01:39:27.689Z,100.00
2022-10-16T01:42:05.107Z,100.00
2022-10-16T01:44:34.874Z,100.00
2022-10-16T01:47:02.123Z,100.00
2022-10-16T01:49:34.099Z,100.00
2022-10-16T01:52:06.563Z,100.00
2022-10-16T01:54:37.517Z,100.00
2022-10-16T01:57:08.637Z,100.00
2022-10-16T01:59:46.977Z,100.00
2022-10-16T02:02:18.046Z,100.00
2022-10-16T02:04:50.513Z,100.00
2022-10-16T02:07:17.722Z,100.00
2022-10-16T02:09:44.930Z,100.00
2022-10-16T02:12:26.396Z,100.00
2022-10-16T02:14:54.366Z,100.00
2022-10-16T02:17:21.832Z,100.00
2022-10-16T02:19:52.173Z,100.00
2022-10-16T02:22:39.139Z,100.00
2022-10-16T02:25:06.211Z,100.00
2022-10-16T02:27:46.825Z,100.00
2022-10-16T02:30:25.971Z,100.00
2022-10-16T02:32:54.514Z,100.00
2022-10-16T02:35:24.286Z,100.00
2022-10-16T02:37:51.805Z,100.00
2022-10-16T02:40:22.860Z,100.00
2022-10-16T02:42:54.911Z,100.00
2022-10-16T02:45:22.879Z,100.00
2022-10-16T02:47:50.353Z,100.00
2022-10-16T02:50:17.618Z,100.00
2022-10-16T02:52:44.686Z,100.00
2022-10-16T02:55:11.716Z,100.00
2022-10-16T02:57:41.103Z,100.00
2022-10-16T03:00:10.799Z,100.00
2022-10-16T03:02:37.877Z,100.00
2022-10-16T03:05:05.442Z,100.00
2022-10-16T03:07:32.425Z,100.00
2022-10-16T03:10:01.185Z,100.00
2022-10-16T03:12:29.110Z,100.00
2022-10-16T03:14:57.590Z,100.00
2022-10-16T03:17:25.744Z,100.00
2022-10-16T03:19:53.238Z,100.00
2022-10-16T03:22:20.328Z,100.00
2022-10-16T03:24:47.441Z,100.00
2022-10-16T03:27:14.469Z,100.00
2022-10-16T03:29:41.699Z,100.00
2022-10-16T03:32:08.804Z,100.00
2022-10-16T03:34:35.830Z,100.00
2022-10-16T03:37:02.828Z,100.00
2022-10-16T03:39:29.844Z,100.00
2022-10-16T03:41:56.797Z,100.00
2022-10-16T03:44:23.864Z,100.00
2022-10-16T03:46:50.857Z,100.00
2022-10-16T03:49:17.914Z,100.00
2022-10-16T03:51:45.141Z,100.00
2022-10-16T03:54:12.183Z,100.00
2022-10-16T03:56:39.419Z,100.00
2022-10-16T03:59:06.525Z,100.00
2022-10-16T04:01:33.524Z,100.00
2022-10-16T04:04:00.587Z,100.00
2022-10-16T04:06:27.580Z,100.00
2022-10-16T04:08:54.660Z,100.00
2022-10-16T04:11:21.688Z,100.00
2022-10-16T04:13:48.986Z,100.00
2022-10-16T04:16:15.977Z,100.00
2022-10-16T04:18:42.970Z,100.00
2022-10-16T04:21:09.977Z,100.00
2022-10-16T04:23:37.135Z,100.00
2022-10-16T04:26:04.484Z,100.00
2022-10-16T04:28:31.495Z,100.00
2022-10-16T04:30:58.718Z,100.00
2022-10-16T04:33:25.738Z,100.00
2022-10-16T04:36:00.326Z,100.00
2022-10-16T04:38:27.491Z,100.00
2022-10-16T04:40:54.566Z,100.00
2022-10-16T04:43:22.443Z,100.00
2022-10-16T04:45:51.503Z,100.00
2022-10-16T04:48:19.244Z,100.00
2022-10-16T04:50:49.296Z,100.00
2022-10-16T04:53:18.704Z,100.00
2022-10-16T04:55:45.723Z,100.00
2022-10-16T04:58:13.179Z,100.00
2022-10-16T05:00:40.259Z,100.00
2022-10-16T05:03:09.587Z,100.00
2022-10-16T05:05:37.261Z,100.00
2022-10-16T05:08:04.931Z,100.00
2022-10-16T05:10:32.005Z,100.00
2022-10-16T05:12:59.193Z,100.00
2022-10-16T05:15:26.454Z,100.00
2022-10-16T05:17:54.927Z,100.00
2022-10-16T05:20:22.812Z,100.00
2022-10-16T05:22:49.995Z,100.00
2022-10-16T05:25:17.156Z,100.00
2022-10-16T05:27:44.283Z,100.00
2022-10-16T05:30:12.473Z,100.00
2022-10-16T05:32:39.753Z,100.00
2022-10-16T05:35:10.089Z,100.00
2022-10-16T05:37:39.611Z,100.00
2022-10-16T05:40:07.210Z,100.00
2022-10-16T05:42:34.167Z,100.00
2022-10-16T05:45:01.586Z,100.00
2022-10-16T05:47:28.854Z,100.00
2022-10-16T05:49:56.793Z,100.00
2022-10-16T05:52:23.757Z,100.00
2022-10-16T05:54:50.883Z,100.00
2022-10-16T05:57:17.858Z,100.00
2022-10-16T05:59:44.859Z,100.00
2022-10-16T06:02:14.397Z,100.00
2022-10-16T06:04:41.444Z,100.00
2022-10-16T06:07:08.848Z,100.00
2022-10-16T06:09:35.843Z,100.00
2022-10-16T06:12:03.003Z,100.00
2022-10-16T06:14:30.066Z,100.00
2022-10-16T06:16:57.019Z,100.00
2022-10-16T06:19:24.243Z,100.00
2022-10-16T06:21:51.314Z,100.00
2022-10-16T06:24:18.370Z,100.00
2022-10-16T06:26:45.365Z,100.00
2022-10-16T06:29:12.379Z,100.00
2022-10-16T06:31:39.384Z,100.00
2022-10-16T06:34:10.229Z,100.00
2022-10-16T06:36:37.611Z,100.00
2022-10-16T06:39:06.226Z,100.00
2022-10-16T06:41:33.282Z,100.00
2022-10-16T06:44:09.954Z,100.00
2022-10-16T06:46:37.031Z,100.00
2022-10-16T06:49:04.185Z,100.00
2022-10-16T06:51:32.961Z,100.00
2022-10-16T06:54:04.405Z,100.00
2022-10-16T06:56:32.809Z,100.00
2022-10-16T06:59:00.760Z,100.00
2022-10-16T07:01:28.405Z,100.00
2022-10-16T07:03:55.489Z,100.00
2022-10-16T07:06:24.704Z,100.00
2022-10-16T07:08:52.168Z,100.00
2022-10-16T07:11:22.149Z,100.00
2022-10-16T07:13:54.374Z,100.00
2022-10-16T07:16:26.479Z,100.00
2022-10-16T07:18:59.363Z,100.00
2022-10-16T07:21:29.674Z,100.00
2022-10-16T07:24:00.114Z,100.00
2022-10-16T07:26:28.634Z,100.00
2022-10-16T07:28:55.888Z,100.00
2022-10-16T07:31:23.726Z,100.00
2022-10-16T07:33:52.364Z,100.00
2022-10-16T07:36:21.045Z,100.00
2022-10-16T07:38:48.708Z,100.00
2022-10-16T07:41:19.323Z,100.00
2022-10-16T07:43:51.594Z,100.00
2022-10-16T07:46:20.583Z,100.00
2022-10-16T07:48:48.118Z,100.00
2022-10-16T07:51:19.704Z,100.00
2022-10-16T07:53:47.709Z,100.00
2022-10-16T07:56:16.099Z,100.00
2022-10-16T07:58:43.186Z,100.00
2022-10-16T08:01:12.698Z,100.00
2022-10-16T08:03:42.861Z,100.00
2022-10-16T08:06:10.023Z,100.00
2022-10-16T08:08:36.989Z,100.00
2022-10-16T08:11:04.922Z,100.00
2022-10-16T08:13:32.438Z,100.00
2022-10-16T08:15:59.475Z,100.00
2022-10-16T08:18:26.597Z,100.00
2022-10-16T08:21:01.199Z,100.00
2022-10-16T08:23:29.489Z,100.00
2022-10-16T08:26:02.226Z,100.00
2022-10-16T08:28:29.231Z,100.00
2022-10-16T08:30:57.806Z,100.00
2022-10-16T08:33:24.831Z,100.00
2022-10-16T08:35:54.438Z,100.00
2022-10-16T08:38:21.970Z,100.00
2022-10-16T08:40:52.714Z,100.00
2022-10-16T08:43:35.551Z,100.00
2022-10-16T08:46:44.789Z,100.00
2022-10-16T08:49:15.698Z,100.00
2022-10-16T08:51:44.370Z,100.00
2022-10-16T08:54:52.963Z,100.00
2022-10-16T08:57:24.216Z,100.00
2022-10-16T08:59:52.874Z,99.97
2022-10-16T09:02:33.611Z,100.00
2022-10-16T09:05:12.338Z,100.00
2022-10-16T09:08:12.442Z,100.00
2022-10-16T09:10:56.147Z,100.00
2022-10-16T09:13:42.034Z,100.00
2022-10-16T09:16:33.593Z,99.87
2022-10-16T09:19:19.258Z,99.97
2022-10-16T09:21:48.125Z,100.00
2022-10-16T09:24:15.049Z,99.91
2022-10-16T09:26:42.426Z,97.23
2022-10-16T09:29:22.535Z,98.00
2022-10-16T09:31:49.557Z,95.89
2022-10-16T09:34:32.942Z,94.20
2022-10-16T09:37:03.948Z,96.73
2022-10-16T09:39:31.016Z,97.07
2022-10-16T09:41:58.096Z,92.40
2022-10-16T09:44:30.592Z,93.79
2022-10-16T09:47:06.271Z,92.74
2022-10-16T09:49:33.295Z,93.37
2022-10-16T09:52:12.435Z,93.73
2022-10-16T09:54:50.277Z,97.51
2022-10-16T09:57:17.335Z,98.37
2022-10-16T09:59:49.406Z,94.66
2022-10-16T10:02:19.157Z,93.59
2022-10-16T10:04:52.430Z,93.93
2022-10-16T10:07:25.302Z,90.22
2022-10-16T10:09:53.742Z,91.87
2022-10-16T10:12:26.913Z,92.64
2022-10-16T10:14:58.971Z,90.52
2022-10-16T10:17:28.013Z,90.65
2022-10-16T10:20:35.383Z,93.83
2022-10-16T10:23:21.837Z,92.24
2022-10-16T10:26:12.802Z,91.72
2022-10-16T10:29:03.681Z,89.52
2022-10-16T10:32:07.494Z,89.04
2022-10-16T10:34:56.560Z,87.55
2022-10-16T10:37:47.650Z,84.91
2022-10-16T10:40:40.705Z,84.65
2022-10-16T10:43:10.599Z,83.34
2022-10-16T10:45:47.346Z,81.27
2022-10-16T10:48:40.931Z,81.90
2022-10-16T10:51:23.883Z,80.65
2022-10-16T10:54:20.815Z,84.97
2022-10-16T10:57:07.246Z,85.00
2022-10-16T11:00:02.064Z,80.08
2022-10-16T11:02:41.426Z,83.30
2022-10-16T11:05:26.966Z,81.64
2022-10-16T11:08:00.999Z,83.13
2022-10-16T11:10:35.635Z,80.52
2022-10-16T11:13:11.625Z,79.52
2022-10-16T11:15:42.413Z,79.17
2022-10-16T11:18:24.527Z,79.91
2022-10-16T11:20:57.049Z,79.39
2022-10-16T11:23:39.441Z,79.97
2022-10-16T11:26:15.295Z,80.43
2022-10-16T11:29:05.688Z,79.36
2022-10-16T11:31:48.202Z,79.71
2022-10-16T11:34:27.050Z,78.04
2022-10-16T11:37:12.040Z,78.16
2022-10-16T11:39:40.338Z,80.04
2022-10-16T11:42:38.202Z,82.86
2022-10-16T11:45:24.084Z,83.01
2022-10-16T11:48:24.104Z,82.28
2022-10-16T11:50:55.121Z,81.00
2022-10-16T11:53:45.896Z,83.92
2022-10-16T11:56:19.845Z,80.48
2022-10-16T11:58:57.331Z,79.72
2022-10-16T12:01:41.962Z,78.44
2022-10-16T12:04:35.454Z,77.54
2022-10-16T12:07:08.104Z,77.31
2022-10-16T12:09:39.543Z,77.98
2022-10-16T12:12:25.627Z,75.16
2022-10-16T12:15:25.726Z,77.44
2022-10-16T12:17:57.960Z,74.65
2022-10-16T12:20:31.887Z,72.22
2022-10-16T12:23:05.092Z,76.27
2022-10-16T12:25:36.517Z,74.90
2022-10-16T12:28:18.673Z,76.55
2022-10-16T12:30:55.420Z,79.12
2022-10-16T12:33:26.122Z,78.09
2022-10-16T12:35:54.895Z,77.51
2022-10-16T12:38:27.557Z,79.01
2022-10-16T12:41:01.490Z,78.74
2022-10-16T12:43:39.179Z,78.79
2022-10-16T12:46:10.250Z,76.10
2022-10-16T12:48:48.973Z,76.25
2022-10-16T12:51:29.127Z,77.82
2022-10-16T12:54:32.871Z,77.86
2022-10-16T12:57:18.328Z,76.08
2022-10-16T13:00:13.214Z,76.72
2022-10-16T13:02:53.060Z,78.64
2022-10-16T13:05:44.815Z,74.91
2022-10-16T13:08:36.377Z,78.11
2022-10-16T13:11:23.085Z,77.83
2022-10-16T13:14:26.479Z,77.31
2022-10-16T13:17:12.689Z,75.43
2022-10-16T13:20:00.419Z,77.55
2022-10-16T13:22:55.151Z,78.71
2022-10-16T13:25:47.423Z,77.51
2022-10-16T13:28:14.770Z,77.23
2022-10-16T13:30:53.258Z,77.71
2022-10-16T13:33:38.323Z,76.16
2022-10-16T13:36:06.570Z,74.59
2022-10-16T13:38:35.892Z,76.87
2022-10-16T13:41:06.110Z,76.37
2022-10-16T13:43:37.720Z,75.41
2022-10-16T13:46:06.980Z,73.19
2022-10-16T13:48:35.493Z,75.43
2022-10-16T13:51:06.918Z,74.33
2022-10-16T13:53:36.581Z,75.12
2022-10-16T13:56:11.783Z,76.59
2022-10-16T13:58:38.812Z,76.21
2022-10-16T14:01:17.720Z,76.31
2022-10-16T14:03:45.877Z,76.93
2022-10-16T14:06:18.710Z,78.10
2022-10-16T14:08:49.895Z,77.33
2022-10-16T14:11:25.587Z,77.71
2022-10-16T14:13:53.834Z,78.66
2022-10-16T14:16:27.814Z,78.42
2022-10-16T14:19:07.692Z,80.37
2022-10-16T14:21:35.381Z,79.66
2022-10-16T14:24:12.591Z,80.38
2022-10-16T14:26:50.684Z,79.27
2022-10-16T14:29:21.916Z,77.29
2022-10-16T14:32:06.418Z,77.89
2022-10-16T14:34:35.982Z,77.96
2022-10-16T14:37:28.201Z,77.49
2022-10-16T14:39:57.185Z,78.50
2022-10-16T14:42:26.449Z,78.78
2022-10-16T14:44:56.438Z,79.81
2022-10-16T14:47:27.652Z,80.91
2022-10-16T14:49:56.842Z,81.23
2022-10-16T14:52:23.986Z,81.57
2022-10-16T14:54:51.596Z,81.44
2022-10-16T14:57:29.227Z,81.62
2022-10-16T14:59:57.429Z,82.56
2022-10-16T15:02:35.827Z,83.31
2022-10-16T15:05:29.172Z,84.21
2022-10-16T15:07:56.337Z,83.94
2022-10-16T15:10:26.755Z,84.14
2022-10-16T15:12:54.116Z,84.89
2022-10-16T15:15:24.332Z,86.75
2022-10-16T15:17:57.289Z,87.71
2022-10-16T15:20:25.790Z,87.00
2022-10-16T15:22:54.127Z,86.60
2022-10-16T15:25:32.899Z,88.04
2022-10-16T15:28:01.045Z,88.05
2022-10-16T15:30:28.580Z,88.20
2022-10-16T15:32:55.656Z,88.79
2022-10-16T15:35:22.765Z,89.30
2022-10-16T15:37:50.147Z,89.79
2022-10-16T15:40:19.385Z,89.63
2022-10-16T15:42:46.932Z,90.19
2022-10-16T15:45:14.672Z,91.86
2022-10-16T15:47:45.103Z,92.65
2022-10-16T15:50:15.887Z,92.62
2022-10-16T15:52:43.200Z,92.58
2022-10-16T15:55:12.258Z,92.96
2022-10-16T15:57:41.569Z,93.58
2022-10-16T16:00:13.861Z,93.91
2022-10-16T16:02:42.526Z,94.37
2022-10-16T16:05:10.821Z,94.42
2022-10-16T16:07:39.554Z,95.03
2022-10-16T16:10:09.218Z,95.38
2022-10-16T16:12:36.527Z,96.37
2022-10-16T16:15:07.802Z,96.93
2022-10-16T16:17:36.385Z,97.58
2022-10-16T16:20:05.551Z,97.82
2022-10-16T16:22:32.755Z,97.89
2022-10-16T16:24:59.714Z,98.08
2022-10-16T16:27:27.356Z,98.77
2022-10-16T16:29:56.099Z,98.85
2022-10-16T16:32:23.271Z,99.38
2022-10-16T16:34:50.352Z,99.91
2022-10-16T16:37:17.930Z,99.62
2022-10-16T16:39:45.032Z,100.00
2022-10-16T16:42:12.050Z,100.00
2022-10-16T16:44:39.190Z,100.00
2022-10-16T16:47:06.902Z,100.00
2022-10-16T16:49:34.214Z,100.00
2022-10-16T16:52:01.339Z,100.00
2022-10-16T16:54:28.485Z,100.00
2022-10-16T16:56:55.598Z,100.00
2022-10-16T16:59:22.891Z,100.00
2022-10-16T17:01:55.598Z,100.00
2022-10-16T17:04:23.695Z,100.00
2022-10-16T17:06:50.715Z,100.00
2022-10-16T17:09:17.732Z,100.00
2022-10-16T17:11:45.570Z,100.00
2022-10-16T17:14:13.230Z,100.00
2022-10-16T17:16:44.570Z,100.00
2022-10-16T17:19:15.030Z,100.00
2022-10-16T17:21:43.160Z,100.00
2022-10-16T17:24:11.039Z,100.00
2022-10-16T17:26:38.402Z,100.00
2022-10-16T17:29:05.560Z,100.00
2022-10-16T17:31:36.161Z,100.00
2022-10-16T17:34:05.900Z,100.00
2022-10-16T17:36:35.027Z,100.00
2022-10-16T17:39:06.307Z,100.00
2022-10-16T17:41:34.611Z,100.00
2022-10-16T17:44:03.121Z,100.00
2022-10-16T17:46:30.414Z,100.00
2022-10-16T17:48:57.396Z,100.00
2022-10-16T17:51:30.401Z,100.00
2022-10-16T17:53:59.431Z,100.00
2022-10-16T17:56:28.231Z,100.00
2022-10-16T17:58:57.356Z,100.00
2022-10-16T18:01:30.141Z,100.00
2022-10-16T18:03:59.429Z,100.00
2022-10-16T18:06:27.763Z,100.00
2022-10-16T18:08:56.842Z,100.00
2022-10-16T18:11:24.309Z,100.00
2022-10-16T18:13:55.734Z,100.00
2022-10-16T18:16:23.836Z,100.00
2022-10-16T18:18:50.918Z,100.00
2022-10-16T18:21:20.102Z,100.00
2022-10-16T18:23:52.024Z,100.00
2022-10-16T18:26:20.643Z,100.00
2022-10-16T18:28:48.164Z,100.00
2022-10-16T18:31:17.636Z,100.00
2022-10-16T18:33:50.108Z,100.00
2022-10-16T18:36:23.073Z,100.00
2022-10-16T18:38:50.419Z,100.00
2022-10-16T18:41:18.072Z,100.00
2022-10-16T18:43:45.168Z,100.00
2022-10-16T18:46:15.287Z,100.00
2022-10-16T18:48:43.087Z,100.00
2022-10-16T18:51:14.970Z,100.00
2022-10-16T18:53:44.673Z,100.00
2022-10-16T18:56:14.941Z,100.00
2022-10-16T18:58:44.228Z,100.00
2022-10-16T19:01:16.468Z,100.00
2022-10-16T19:03:44.046Z,100.00
2022-10-16T19:06:13.669Z,100.00
2022-10-16T19:08:41.826Z,100.00
2022-10-16T19:11:16.118Z,100.00
2022-10-16T19:13:44.451Z,100.00
2022-10-16T19:16:21.727Z,100.00
2022-10-16T19:18:50.574Z,100.00
2022-10-16T19:21:18.644Z,100.00
2022-10-16T19:23:46.097Z,100.00
2022-10-16T19:26:17.939Z,100.00
2022-10-16T19:28:45.678Z,100.00
2022-10-16T19:31:15.616Z,100.00
2022-10-16T19:33:43.358Z,100.00
2022-10-16T19:36:25.006Z,100.00
2022-10-16T19:38:58.317Z,100.00
2022-10-16T19:41:26.475Z,100.00
2022-10-16T19:43:54.214Z,100.00
2022-10-16T19:46:25.776Z,100.00
2022-10-16T19:49:04.360Z,100.00
2022-10-16T19:51:31.711Z,100.00
2022-10-16T19:54:04.440Z,100.00
2022-10-16T19:56:32.387Z,100.00
2022-10-16T19:59:00.306Z,100.00
2022-10-16T20:01:30.238Z,100.00
2022-10-16T20:03:57.717Z,100.00
2022-10-16T20:06:25.577Z,100.00
2022-10-16T20:08:54.856Z,100.00
2022-10-16T20:11:25.370Z,100.00
2022-10-16T20:13:52.829Z,100.00
2022-10-16T20:16:20.949Z,100.00
2022-10-16T20:18:50.416Z,100.00
2022-10-16T20:21:20.269Z,100.00
2022-10-16T20:23:48.889Z,100.00
2022-10-16T20:26:17.364Z,100.00
2022-10-16T20:28:44.617Z,100.00
2022-10-16T20:31:17.687Z,100.00
2022-10-16T20:33:45.320Z,100.00
2022-10-16T20:36:14.032Z,100.00
2022-10-16T20:38:42.085Z,100.00
2022-10-16T20:41:11.042Z,100.00
2022-10-16T20:46:19.951Z,100.00
2022-10-16T20:48:47.805Z,100.00
2022-10-16T20:51:23.849Z,100.00
2022-10-16T20:53:56.790Z,100.00
2022-10-16T20:56:24.999Z,100.00
2022-10-16T20:58:52.577Z,100.00
2022-10-16T21:01:23.470Z,100.00
2022-10-16T21:03:58.435Z,100.00
2022-10-16T21:06:25.930Z,100.00
2022-10-16T21:08:52.936Z,100.00
2022-10-16T21:14:02.071Z,100.00
2022-10-16T21:16:29.294Z,100.00
2022-10-16T21:18:57.415Z,100.00
2022-10-16T21:21:44.758Z,100.00
2022-10-16T21:24:15.011Z,100.00
2022-10-16T21:26:44.490Z,100.00
2022-10-16T21:29:11.492Z,100.00
2022-10-16T21:31:39.051Z,100.00
2022-10-16T21:34:06.130Z,100.00
2022-10-16T21:36:36.017Z,100.00
2022-10-16T21:39:08.596Z,100.00
2022-10-16T21:41:36.270Z,100.00
2022-10-16T21:44:03.692Z,100.00
2022-10-16T21:46:33.736Z,100.00
2022-10-16T21:49:03.541Z,100.00
2022-10-16T21:51:33.865Z,100.00
2022-10-16T21:54:02.094Z,100.00
2022-10-16T21:56:29.784Z,100.00
2022-10-16T21:58:57.259Z,100.00
2022-10-16T22:01:25.970Z,100.00
2022-10-16T22:03:53.789Z,100.00
2022-10-16T22:06:23.264Z,100.00
2022-10-16T22:08:51.762Z,100.00
2022-10-16T22:11:25.281Z,100.00
2022-10-16T22:13:56.407Z,100.00
2022-10-16T22:16:26.569Z,100.00
2022-10-16T22:18:55.988Z,100.00
2022-10-16T22:21:23.991Z,100.00
2022-10-16T22:23:51.449Z,100.00
2022-10-16T22:26:18.540Z,100.00
2022-10-16T22:28:45.708Z,100.00
2022-10-16T22:31:14.328Z,100.00
2022-10-16T22:33:42.193Z,100.00
2022-10-16T22:36:12.178Z,100.00
2022-10-16T22:38:39.343Z,100.00
2022-10-16T22:41:12.779Z,100.00
2022-10-16T22:43:43.786Z,100.00
2022-10-16T22:46:13.872Z,100.00
2022-10-16T22:48:41.544Z,100.00
2022-10-16T22:51:09.602Z,100.00
2022-10-16T22:53:36.579Z,100.00
2022-10-16T22:56:03.917Z,100.00
2022-10-16T22:58:30.925Z,100.00
2022-10-16T23:03:30.172Z,100.00
2022-10-16T23:05:57.154Z,100.00
2022-10-16T23:08:25.110Z,100.00
2022-10-16T23:10:52.074Z,100.00
2022-10-16T23:13:19.061Z,100.00
2022-10-16T23:15:46.165Z,100.00
2022-10-16T23:18:13.210Z,100.00
2022-10-16T23:20:40.995Z,100.00
2022-10-16T23:23:09.165Z,100.00
2022-10-16T23:25:36.864Z,100.00
2022-10-16T23:28:04.374Z,100.00
2022-10-16T23:30:31.460Z,100.00
2022-10-16T23:32:58.449Z,100.00
2022-10-16T23:35:25.443Z,100.00
2022-10-16T23:37:52.570Z,100.00
2022-10-16T23:40:19.631Z,100.00
2022-10-16T23:42:46.655Z,100.00
2022-10-16T23:45:13.711Z,100.00
2022-10-16T23:47:41.502Z,100.00
2022-10-16T23:50:09.911Z,100.00
2022-10-16T23:52:36.908Z,100.00
2022-10-16T23:55:04.884Z,100.00
2022-10-16T23:57:32.026Z,100.00
2022-10-16T23:59:59.023Z,100.00
